createdAt,value
2018-08-30T00:00:44.441Z,73.73
2018-08-30T00:03:13.263Z,76.23
2018-08-30T00:05:42.086Z,77.54
2018-08-30T00:08:10.454Z,75.91
2018-08-30T00:10:38.751Z,78.90
2018-08-30T00:13:07.039Z,77.18
2018-08-30T00:15:35.393Z,77.87
2018-08-30T00:18:03.684Z,76.80
2018-08-30T00:20:32.121Z,77.50
2018-08-30T00:23:00.530Z,77.32
2018-08-30T00:25:28.882Z,76.29
2018-08-30T00:27:57.351Z,78.74
2018-08-30T00:30:25.688Z,76.81
2018-08-30T00:32:53.975Z,70.22
2018-08-30T00:35:22.409Z,77.75
2018-08-30T00:37:50.756Z,77.92
2018-08-30T00:40:19.212Z,75.97
2018-08-30T00:42:47.782Z,76.49
2018-08-30T00:45:16.111Z,79.82
2018-08-30T00:47:48.225Z,79.07
2018-08-30T00:50:16.990Z,80.69
2018-08-30T00:52:45.420Z,79.66
2018-08-30T00:55:14.773Z,80.91
2018-08-30T00:57:43.310Z,80.85
2018-08-30T01:00:11.626Z,79.76
2018-08-30T01:02:39.906Z,80.14
2018-08-30T01:05:08.296Z,81.87
2018-08-30T01:07:36.882Z,82.69
2018-08-30T01:10:05.571Z,80.27
2018-08-30T01:12:33.842Z,81.29
2018-08-30T01:15:02.293Z,80.36
2018-08-30T01:17:30.562Z,78.41
2018-08-30T01:19:58.909Z,80.03
2018-08-30T01:22:27.176Z,70.44
2018-08-30T01:24:55.453Z,67.14
2018-08-30T01:27:23.726Z,74.50
2018-08-30T01:29:52.096Z,79.09
2018-08-30T01:32:20.534Z,80.50
2018-08-30T01:34:48.864Z,78.71
2018-08-30T01:37:17.156Z,75.12
2018-08-30T01:39:45.658Z,76.93
2018-08-30T01:42:14.076Z,79.25
2018-08-30T01:44:42.338Z,78.06
2018-08-30T01:47:10.646Z,75.70
2018-08-30T01:49:39.194Z,79.13
2018-08-30T01:52:07.495Z,77.74
2018-08-30T01:54:35.842Z,78.50
2018-08-30T01:57:04.230Z,78.59
2018-08-30T01:59:32.634Z,79.89
2018-08-30T02:02:01.209Z,78.40
2018-08-30T02:04:29.618Z,77.42
2018-08-30T02:06:58.101Z,77.80
2018-08-30T02:09:26.475Z,81.55
2018-08-30T02:11:54.780Z,80.67
2018-08-30T02:14:23.071Z,80.42
2018-08-30T02:16:51.338Z,77.82
2018-08-30T02:19:19.594Z,77.38
2018-08-30T02:21:47.981Z,78.19
2018-08-30T02:24:16.223Z,76.96
2018-08-30T02:26:44.539Z,76.46
2018-08-30T02:29:12.814Z,76.01
2018-08-30T02:31:41.126Z,76.11
2018-08-30T02:34:09.415Z,77.43
2018-08-30T02:36:37.696Z,75.33
2018-08-30T02:39:07.088Z,77.89
2018-08-30T02:41:35.380Z,77.66
2018-08-30T02:44:03.930Z,74.87
2018-08-30T02:46:32.192Z,77.92
2018-08-30T02:49:00.525Z,77.91
2018-08-30T02:51:28.769Z,77.33
2018-08-30T02:53:57.058Z,77.17
2018-08-30T02:56:25.314Z,75.30
2018-08-30T02:58:53.631Z,76.33
2018-08-30T03:01:22.075Z,75.76
2018-08-30T03:03:50.354Z,74.96
2018-08-30T03:06:18.653Z,75.44
2018-08-30T03:08:47.127Z,74.14
2018-08-30T03:11:15.410Z,79.25
2018-08-30T03:13:43.687Z,78.77
2018-08-30T03:16:11.962Z,80.22
2018-08-30T03:18:40.309Z,79.61
2018-08-30T03:21:08.593Z,79.62
2018-08-30T03:23:36.854Z,79.57
2018-08-30T03:26:05.139Z,79.04
2018-08-30T03:28:33.391Z,80.44
2018-08-30T03:31:01.768Z,77.64
2018-08-30T03:33:29.942Z,79.03
2018-08-30T03:35:58.369Z,79.41
2018-08-30T03:38:26.701Z,80.46
2018-08-30T03:40:55.015Z,79.21
2018-08-30T03:43:23.407Z,81.28
2018-08-30T03:45:51.818Z,79.11
2018-08-30T03:48:20.113Z,81.66
2018-08-30T03:50:48.376Z,78.91
2018-08-30T03:53:16.659Z,79.87
2018-08-30T03:55:44.918Z,80.18
2018-08-30T03:58:13.199Z,79.98
2018-08-30T04:00:41.454Z,79.69
2018-08-30T04:03:09.759Z,80.81
2018-08-30T04:05:38.014Z,81.13
2018-08-30T04:08:06.282Z,79.58
2018-08-30T04:10:34.550Z,81.22
2018-08-30T04:13:02.873Z,79.60
2018-08-30T04:15:31.150Z,79.70
2018-08-30T04:17:59.569Z,80.79
2018-08-30T04:20:28.014Z,79.86
2018-08-30T04:22:56.292Z,80.36
2018-08-30T04:25:24.589Z,79.30
2018-08-30T04:27:53.252Z,80.96
2018-08-30T04:30:21.655Z,79.86
2018-08-30T04:32:49.935Z,78.18
2018-08-30T04:35:18.203Z,79.27
2018-08-30T04:37:46.460Z,79.06
2018-08-30T04:40:14.747Z,82.09
2018-08-30T04:42:43.019Z,80.10
2018-08-30T04:45:11.279Z,81.30
2018-08-30T04:47:39.619Z,80.98
2018-08-30T04:50:07.967Z,83.07
2018-08-30T04:52:36.195Z,82.62
2018-08-30T04:55:04.473Z,82.27
2018-08-30T04:57:32.730Z,82.25
2018-08-30T05:00:01.042Z,81.91
2018-08-30T05:02:29.386Z,82.68
2018-08-30T05:04:57.668Z,83.84
2018-08-30T05:07:26.078Z,82.16
2018-08-30T05:09:54.385Z,83.77
2018-08-30T05:12:22.727Z,81.79
2018-08-30T05:14:51.075Z,82.10
2018-08-30T05:17:20.716Z,81.70
2018-08-30T05:19:48.990Z,83.10
2018-08-30T05:22:17.266Z,83.24
2018-08-30T05:24:45.606Z,81.53
2018-08-30T05:27:13.969Z,83.19
2018-08-30T05:29:46.327Z,85.72
2018-08-30T05:32:14.517Z,84.17
2018-08-30T05:34:42.787Z,83.58
2018-08-30T05:37:11.351Z,83.80
2018-08-30T05:39:39.652Z,84.16
2018-08-30T05:42:07.954Z,86.00
2018-08-30T05:44:36.246Z,84.68
2018-08-30T05:47:04.511Z,83.69
2018-08-30T05:49:32.787Z,84.63
2018-08-30T05:52:01.081Z,85.10
2018-08-30T05:54:29.370Z,84.56
2018-08-30T05:56:57.742Z,84.87
2018-08-30T05:59:25.964Z,84.53
2018-08-30T06:01:54.249Z,82.75
2018-08-30T06:04:22.702Z,82.68
2018-08-30T06:06:51.063Z,82.25
2018-08-30T06:09:19.402Z,81.59
2018-08-30T06:11:47.727Z,81.77
2018-08-30T06:14:16.050Z,82.22
2018-08-30T06:16:44.353Z,82.01
2018-08-30T06:19:12.666Z,83.53
2018-08-30T06:21:41.070Z,83.34
2018-08-30T06:24:09.462Z,81.44
2018-08-30T06:26:37.821Z,82.66
2018-08-30T06:29:06.396Z,81.68
2018-08-30T06:31:34.673Z,82.33
2018-08-30T06:34:03.096Z,81.27
2018-08-30T06:36:31.564Z,81.03
2018-08-30T06:38:59.862Z,83.58
2018-08-30T06:41:28.163Z,82.81
2018-08-30T06:43:56.486Z,80.61
2018-08-30T06:46:24.759Z,82.03
2018-08-30T06:48:53.054Z,83.36
2018-08-30T06:51:21.330Z,80.41
2018-08-30T06:53:49.659Z,79.63
2018-08-30T06:56:18.057Z,78.99
2018-08-30T06:58:46.318Z,79.63
2018-08-30T07:01:14.633Z,78.84
2018-08-30T07:03:42.886Z,78.85
2018-08-30T07:06:11.347Z,77.87
2018-08-30T07:08:39.664Z,79.06
2018-08-30T07:11:07.951Z,76.87
2018-08-30T07:13:36.251Z,77.71
2018-08-30T07:16:04.588Z,80.26
2018-08-30T07:18:32.868Z,78.54
2018-08-30T07:21:01.165Z,79.69
2018-08-30T07:23:29.434Z,78.76
2018-08-30T07:25:57.789Z,78.27
2018-08-30T07:28:26.146Z,78.06
2018-08-30T07:30:54.456Z,79.02
2018-08-30T07:33:22.857Z,78.64
2018-08-30T07:35:51.102Z,78.46
2018-08-30T07:38:19.407Z,79.72
2018-08-30T07:40:47.776Z,79.99
2018-08-30T07:43:16.051Z,79.95
2018-08-30T07:45:44.374Z,73.45
2018-08-30T07:48:12.709Z,76.17
2018-08-30T07:50:40.982Z,77.33
2018-08-30T07:53:09.360Z,79.21
2018-08-30T07:55:37.655Z,78.52
2018-08-30T07:58:06.595Z,78.38
2018-08-30T08:00:34.878Z,76.98
2018-08-30T08:03:03.611Z,79.08
2018-08-30T08:05:31.906Z,76.26
2018-08-30T08:08:00.630Z,76.87
2018-08-30T08:10:29.049Z,77.27
2018-08-30T08:12:57.319Z,76.61
2018-08-30T08:15:25.630Z,76.09
2018-08-30T08:17:53.945Z,75.59
2018-08-30T08:20:22.268Z,74.89
2018-08-30T08:22:50.580Z,76.58
2018-08-30T08:25:18.956Z,76.13
2018-08-30T08:27:47.215Z,74.82
2018-08-30T08:30:15.606Z,74.64
2018-08-30T08:32:43.887Z,74.91
2018-08-30T08:35:12.195Z,74.61
2018-08-30T08:37:40.491Z,75.88
2018-08-30T08:40:09.837Z,75.90
2018-08-30T08:42:38.156Z,73.62
2018-08-30T08:45:06.499Z,73.86
2018-08-30T08:47:34.779Z,76.86
2018-08-30T08:50:03.178Z,75.41
2018-08-30T08:52:31.470Z,75.55
2018-08-30T08:54:59.751Z,75.94
2018-08-30T08:57:28.062Z,75.14
2018-08-30T08:59:56.435Z,76.71
2018-08-30T09:02:24.744Z,78.02
2018-08-30T09:04:53.069Z,75.52
2018-08-30T09:07:21.419Z,75.03
2018-08-30T09:09:49.818Z,76.79
2018-08-30T09:12:18.128Z,75.15
2018-08-30T09:14:46.517Z,75.14
2018-08-30T09:17:14.830Z,76.26
2018-08-30T09:19:43.119Z,74.20
2018-08-30T09:22:11.416Z,74.97
2018-08-30T09:24:39.707Z,74.50
2018-08-30T09:27:08.147Z,73.58
2018-08-30T09:29:36.374Z,72.86
2018-08-30T09:32:04.806Z,73.56
2018-08-30T09:34:33.092Z,72.72
2018-08-30T09:37:01.351Z,74.03
2018-08-30T09:39:29.655Z,72.46
2018-08-30T09:41:57.914Z,73.54
2018-08-30T09:44:26.183Z,71.81
2018-08-30T09:46:54.451Z,74.49
2018-08-30T09:49:22.824Z,72.66
2018-08-30T09:51:51.064Z,73.19
2018-08-30T09:54:19.349Z,72.81
2018-08-30T09:56:47.674Z,71.65
2018-08-30T09:59:15.977Z,73.21
2018-08-30T10:01:49.040Z,71.04
2018-08-30T10:04:17.570Z,70.29
2018-08-30T10:06:45.859Z,69.03
2018-08-30T10:09:14.196Z,67.86
2018-08-30T10:11:42.486Z,66.63
2018-08-30T10:14:10.988Z,68.21
2018-08-30T10:16:39.319Z,66.45
2018-08-30T10:19:07.623Z,68.33
2018-08-30T10:21:36.005Z,70.71
2018-08-30T10:24:04.297Z,70.53
2018-08-30T10:26:32.673Z,71.19
2018-08-30T10:29:00.916Z,70.16
2018-08-30T10:31:29.459Z,70.23
2018-08-30T10:33:57.720Z,68.42
2018-08-30T10:36:26.027Z,66.50
2018-08-30T10:38:54.336Z,64.47
2018-08-30T10:41:22.632Z,64.14
2018-08-30T10:43:51.015Z,61.75
2018-08-30T10:46:19.326Z,57.50
2018-08-30T10:48:47.652Z,60.19
2018-08-30T10:51:15.991Z,60.00
2018-08-30T10:53:44.338Z,62.33
2018-08-30T10:56:12.762Z,63.07
2018-08-30T10:58:41.036Z,60.67
2018-08-30T11:01:09.330Z,61.29
2018-08-30T11:03:37.708Z,55.02
2018-08-30T11:06:06.099Z,51.66
2018-08-30T11:08:34.474Z,54.12
2018-08-30T11:11:03.131Z,52.36
2018-08-30T11:13:31.625Z,52.32
2018-08-30T11:15:59.988Z,53.24
2018-08-30T11:18:28.389Z,53.55
2018-08-30T11:20:56.836Z,49.41
2018-08-30T11:23:25.243Z,48.76
2018-08-30T11:25:53.698Z,51.05
2018-08-30T11:28:22.093Z,48.29
2018-08-30T11:30:50.564Z,55.96
2018-08-30T11:33:19.384Z,48.58
2018-08-30T11:35:47.673Z,46.95
2018-08-30T11:38:17.750Z,41.18
2018-08-30T11:40:46.834Z,38.40
2018-08-30T11:43:16.886Z,36.80
2018-08-30T11:45:46.939Z,38.28
2018-08-30T11:48:15.264Z,40.21
2018-08-30T11:50:43.529Z,42.12
2018-08-30T11:53:11.823Z,43.97
2018-08-30T11:55:40.100Z,46.35
2018-08-30T11:58:08.453Z,46.14
2018-08-30T12:00:36.790Z,44.43
2018-08-30T12:03:05.085Z,42.97
2018-08-30T12:05:33.444Z,45.46
2018-08-30T12:08:01.851Z,47.69
2018-08-30T12:10:30.571Z,48.97
2018-08-30T12:12:58.960Z,50.77
2018-08-30T12:15:27.578Z,52.08
2018-08-30T12:17:55.846Z,52.10
2018-08-30T12:20:24.143Z,53.00
2018-08-30T12:22:52.422Z,55.47
2018-08-30T12:25:20.671Z,55.97
2018-08-30T12:27:48.946Z,54.32
2018-08-30T12:30:17.237Z,53.86
2018-08-30T12:32:45.486Z,53.03
2018-08-30T12:35:13.983Z,52.49
2018-08-30T12:37:42.259Z,51.47
2018-08-30T12:40:10.673Z,53.46
2018-08-30T12:42:39.026Z,54.65
2018-08-30T12:45:07.366Z,54.66
2018-08-30T12:47:36.164Z,55.38
2018-08-30T12:50:04.578Z,54.26
2018-08-30T12:52:32.979Z,52.42
2018-08-30T12:55:01.449Z,52.91
2018-08-30T12:57:30.132Z,51.46
2018-08-30T12:59:58.783Z,51.91
2018-08-30T13:02:27.063Z,50.63
2018-08-30T13:04:55.350Z,50.29
2018-08-30T13:07:24.791Z,50.09
2018-08-30T13:09:53.676Z,50.66
2018-08-30T13:12:21.941Z,52.09
2018-08-30T13:14:50.505Z,52.66
2018-08-30T13:17:18.821Z,53.62
2018-08-30T13:19:47.252Z,46.59
2018-08-30T13:22:16.050Z,45.39
2018-08-30T13:24:44.312Z,46.90
2018-08-30T13:27:12.633Z,47.98
2018-08-30T13:29:41.044Z,45.74
2018-08-30T13:32:09.583Z,45.45
2018-08-30T13:34:37.840Z,45.30
2018-08-30T13:37:06.641Z,46.06
2018-08-30T13:39:35.087Z,46.88
2018-08-30T13:42:10.806Z,45.18
2018-08-30T13:44:39.262Z,45.13
2018-08-30T13:47:08.612Z,44.96
2018-08-30T13:49:38.213Z,42.99
2018-08-30T13:52:06.640Z,42.32
2018-08-30T13:54:36.794Z,43.86
2018-08-30T13:57:07.408Z,42.46
2018-08-30T13:59:36.778Z,44.18
2018-08-30T14:02:05.494Z,43.00
2018-08-30T14:04:33.894Z,43.95
2018-08-30T14:07:02.205Z,44.72
2018-08-30T14:09:31.299Z,44.79
2018-08-30T14:14:39.274Z,46.05
2018-08-30T14:17:08.356Z,45.95
2018-08-30T14:19:36.678Z,44.73
2018-08-30T14:22:04.918Z,45.99
2018-08-30T14:24:33.276Z,45.75
2018-08-30T14:27:01.660Z,44.65
2018-08-30T14:29:29.824Z,44.26
2018-08-30T14:31:58.172Z,45.49
2018-08-30T14:34:26.678Z,44.25
2018-08-30T14:36:55.155Z,45.31
2018-08-30T14:39:23.659Z,44.97
2018-08-30T14:41:52.087Z,45.35
2018-08-30T14:44:20.366Z,46.05
2018-08-30T14:46:48.818Z,45.82
2018-08-30T14:49:17.174Z,44.67
2018-08-30T14:51:45.543Z,44.85
2018-08-30T14:54:13.899Z,45.34
2018-08-30T14:56:42.312Z,47.12
2018-08-30T14:59:10.671Z,47.01
2018-08-30T15:01:39.025Z,47.25
2018-08-30T15:04:07.357Z,46.63
2018-08-30T15:06:35.642Z,46.55
2018-08-30T15:09:04.689Z,47.21
2018-08-30T15:11:33.946Z,48.53
2018-08-30T15:14:02.195Z,47.84
2018-08-30T15:16:30.475Z,48.71
2018-08-30T15:18:58.881Z,49.96
2018-08-30T15:21:27.194Z,49.17
2018-08-30T15:23:55.473Z,48.87
2018-08-30T15:26:23.743Z,47.73
2018-08-30T15:28:52.055Z,44.86
2018-08-30T15:31:20.398Z,46.23
2018-08-30T15:33:48.710Z,46.09
2018-08-30T15:36:17.036Z,45.35
2018-08-30T15:38:45.278Z,46.44
2018-08-30T15:41:13.798Z,46.29
2018-08-30T15:43:42.096Z,46.08
2018-08-30T15:46:10.398Z,45.98
2018-08-30T15:48:38.767Z,45.22
2018-08-30T15:51:07.173Z,47.63
2018-08-30T15:53:35.463Z,46.29
2018-08-30T15:56:03.752Z,45.78
2018-08-30T15:58:32.035Z,49.46
2018-08-30T16:01:00.385Z,50.75
2018-08-30T16:03:28.627Z,46.27
2018-08-30T16:05:56.912Z,49.04
2018-08-30T16:08:25.203Z,48.33
2018-08-30T16:10:53.522Z,46.14
2018-08-30T16:13:21.984Z,47.63
2018-08-30T16:15:50.159Z,49.94
2018-08-30T16:18:18.440Z,50.58
2018-08-30T16:20:46.744Z,51.41
2018-08-30T16:23:23.702Z,51.89
2018-08-30T16:25:51.908Z,51.90
2018-08-30T16:28:20.332Z,48.78
2018-08-30T16:30:48.644Z,48.06
2018-08-30T16:33:18.527Z,49.98
2018-08-30T16:35:46.917Z,51.33
2018-08-30T16:38:15.375Z,53.27
2018-08-30T16:40:44.085Z,53.43
2018-08-30T16:43:12.398Z,50.29
2018-08-30T16:45:40.735Z,50.39
2018-08-30T16:48:09.003Z,51.78
2018-08-30T16:50:37.297Z,50.27
2018-08-30T16:53:05.859Z,50.18
2018-08-30T16:55:34.643Z,50.21
2018-08-30T16:58:02.792Z,50.04
2018-08-30T17:00:31.067Z,52.04
2018-08-30T17:02:59.658Z,50.49
2018-08-30T17:05:28.170Z,49.75
2018-08-30T17:07:56.541Z,49.01
2018-08-30T17:10:24.852Z,50.52
2018-08-30T17:12:53.156Z,49.78
2018-08-30T17:15:21.714Z,49.99
2018-08-30T17:17:50.212Z,52.78
2018-08-30T17:20:23.954Z,52.86
2018-08-30T17:22:52.240Z,50.96
2018-08-30T17:25:20.707Z,53.55
2018-08-30T17:27:48.946Z,54.72
2018-08-30T17:30:17.302Z,55.84
2018-08-30T17:32:45.633Z,54.67
2018-08-30T17:35:13.910Z,56.98
2018-08-30T17:37:42.199Z,54.97
2018-08-30T17:40:10.463Z,54.62
2018-08-30T17:42:38.728Z,54.67
2018-08-30T17:45:07.327Z,55.90
2018-08-30T17:47:35.535Z,57.69
2018-08-30T17:50:03.787Z,57.11
2018-08-30T17:52:32.052Z,56.53
2018-08-30T17:55:00.332Z,56.73
2018-08-30T17:57:28.582Z,56.40
2018-08-30T17:59:56.829Z,61.08
2018-08-30T18:02:25.088Z,62.77
2018-08-30T18:04:53.419Z,63.81
2018-08-30T18:07:21.652Z,65.60
2018-08-30T18:09:49.974Z,64.31
2018-08-30T18:12:18.525Z,64.46
2018-08-30T18:14:46.833Z,64.52
2018-08-30T18:17:15.197Z,64.96
2018-08-30T18:19:43.669Z,65.80
2018-08-30T18:22:12.197Z,65.09
2018-08-30T18:27:13.638Z,64.09
2018-08-30T18:29:41.906Z,64.84
2018-08-30T18:32:10.173Z,63.89
2018-08-30T18:34:38.463Z,65.81
2018-08-30T18:37:06.815Z,67.12
2018-08-30T18:39:35.128Z,65.98
2018-08-30T18:42:03.398Z,67.50
2018-08-30T18:44:31.842Z,65.25
2018-08-30T18:47:00.101Z,66.23
2018-08-30T18:49:28.528Z,66.50
2018-08-30T18:51:56.784Z,65.50
2018-08-30T18:54:25.078Z,67.00
2018-08-30T18:56:53.338Z,67.78
2018-08-30T18:59:21.602Z,66.15
2018-08-30T19:01:50.066Z,66.87
2018-08-30T19:04:18.404Z,66.71
2018-08-30T19:06:46.802Z,68.12
2018-08-30T19:09:15.195Z,68.43
2018-08-30T19:11:43.569Z,66.31
2018-08-30T19:14:11.953Z,66.26
2018-08-30T19:16:45.706Z,66.54
2018-08-30T19:19:16.675Z,66.35
2018-08-30T19:21:45.105Z,65.87
2018-08-30T19:24:19.428Z,66.22
2018-08-30T19:26:47.773Z,66.85
2018-08-30T19:29:20.758Z,67.08
2018-08-30T19:31:50.289Z,65.44
2018-08-30T19:34:18.628Z,65.91
2018-08-30T19:36:46.818Z,66.24
2018-08-30T19:39:15.872Z,67.66
2018-08-30T19:41:44.185Z,66.61
2018-08-30T19:44:13.358Z,66.63
2018-08-30T19:46:43.091Z,66.93
2018-08-30T19:49:16.615Z,67.36
2018-08-30T19:51:46.203Z,68.02
2018-08-30T19:54:14.789Z,65.46
2018-08-30T19:56:43.155Z,65.61
2018-08-30T19:59:14.517Z,65.41
2018-08-30T20:01:42.772Z,64.68
2018-08-30T20:04:15.115Z,65.46
2018-08-30T20:06:43.699Z,65.61
2018-08-30T20:09:12.131Z,65.89
2018-08-30T20:11:40.668Z,65.36
2018-08-30T20:14:09.484Z,66.97
2018-08-30T20:16:39.484Z,65.97
2018-08-30T20:19:09.455Z,66.53
2018-08-30T20:21:38.060Z,67.74
2018-08-30T20:24:06.477Z,67.08
2018-08-30T20:26:34.737Z,68.09
2018-08-30T20:29:03.054Z,68.97
2018-08-30T20:31:31.372Z,67.82
2018-08-30T20:33:59.679Z,68.53
2018-08-30T20:36:28.092Z,68.17
2018-08-30T20:38:56.403Z,67.90
2018-08-30T20:41:24.712Z,67.34
2018-08-30T20:43:53.108Z,67.70
2018-08-30T20:46:21.429Z,68.39
2018-08-30T20:48:49.870Z,68.54
2018-08-30T20:51:18.272Z,68.84
2018-08-30T20:53:46.718Z,68.44
2018-08-30T20:56:15.152Z,68.37
2018-08-30T20:58:43.444Z,68.20
2018-08-30T21:01:11.699Z,69.54
2018-08-30T21:03:40.059Z,69.19
2018-08-30T21:06:08.431Z,68.09
2018-08-30T21:08:36.732Z,67.74
2018-08-30T21:11:05.348Z,68.14
2018-08-30T21:13:33.647Z,68.73
2018-08-30T21:16:01.915Z,69.52
2018-08-30T21:18:30.286Z,70.01
2018-08-30T21:20:58.695Z,68.92
2018-08-30T21:23:26.939Z,68.73
2018-08-30T21:25:55.214Z,68.97
2018-08-30T21:28:23.486Z,71.56
2018-08-30T21:30:51.783Z,70.16
2018-08-30T21:33:20.153Z,69.35
2018-08-30T21:35:48.437Z,70.86
2018-08-30T21:38:16.724Z,70.50
2018-08-30T21:40:45.002Z,69.89
2018-08-30T21:43:13.456Z,69.96
2018-08-30T21:45:41.762Z,70.67
2018-08-30T21:48:10.147Z,71.21
2018-08-30T21:50:38.386Z,70.36
2018-08-30T21:53:06.685Z,71.17
2018-08-30T21:55:34.950Z,70.69
2018-08-30T21:58:03.223Z,70.59
2018-08-30T22:00:31.593Z,70.72
2018-08-30T22:02:59.921Z,71.39
2018-08-30T22:05:28.223Z,70.56
2018-08-30T22:07:56.458Z,70.48
2018-08-30T22:10:25.030Z,71.39
2018-08-30T22:12:53.303Z,71.92
2018-08-30T22:15:21.562Z,71.39
2018-08-30T22:17:49.810Z,70.12
2018-08-30T22:20:18.112Z,69.71
2018-08-30T22:22:46.392Z,69.34
2018-08-30T22:25:14.651Z,69.18
2018-08-30T22:27:42.912Z,68.87
2018-08-30T22:30:11.319Z,68.45
2018-08-30T22:32:39.806Z,69.78
2018-08-30T22:35:08.337Z,69.23
2018-08-30T22:37:37.006Z,68.79
2018-08-30T22:40:05.901Z,68.79
2018-08-30T22:42:34.114Z,69.77
2018-08-30T22:45:02.837Z,69.67
2018-08-30T22:47:34.758Z,68.08
2018-08-30T22:50:03.175Z,67.28
2018-08-30T22:52:31.478Z,68.18
2018-08-30T22:54:59.765Z,67.76
2018-08-30T22:57:28.092Z,66.78
2018-08-30T22:59:56.316Z,67.93
2018-08-30T23:02:24.599Z,66.98
2018-08-30T23:04:53.022Z,66.18
2018-08-30T23:07:21.496Z,68.30
2018-08-30T23:09:49.884Z,67.05
2018-08-30T23:12:18.218Z,66.90
2018-08-30T23:14:46.630Z,69.50
2018-08-30T23:17:15.218Z,68.17
2018-08-30T23:19:43.667Z,69.34
2018-08-30T23:22:12.030Z,68.97
2018-08-30T23:24:40.383Z,70.01
2018-08-30T23:27:08.747Z,68.88
2018-08-30T23:29:37.114Z,68.57
2018-08-30T23:32:05.533Z,69.20
2018-08-30T23:34:33.928Z,69.21
2018-08-30T23:37:02.270Z,70.70
2018-08-30T23:39:30.750Z,70.44
2018-08-30T23:41:59.131Z,70.55
2018-08-30T23:44:27.410Z,68.95
2018-08-30T23:46:55.738Z,68.55
2018-08-30T23:49:24.204Z,69.52
2018-08-30T23:51:52.579Z,69.17
2018-08-30T23:54:20.962Z,68.37
2018-08-30T23:56:49.408Z,69.45
2018-08-30T23:59:29.071Z,68.88
